createdAt,value
2022-08-25T00:03:03.962Z,54
2022-08-25T00:13:05.921Z,55
2022-08-25T00:23:08.462Z,55
2022-08-25T00:33:10.923Z,55
2022-08-25T00:43:13.226Z,56
2022-08-25T00:53:15.518Z,56
2022-08-25T01:03:18.167Z,56
2022-08-25T01:13:20.407Z,56
2022-08-25T01:23:22.477Z,57
2022-08-25T01:33:24.626Z,57
2022-08-25T01:43:26.568Z,57
2022-08-25T01:53:29.160Z,58
2022-08-25T02:03:32.444Z,59
2022-08-25T02:13:33.671Z,59
2022-08-25T02:23:36.278Z,59
2022-08-25T02:33:38.721Z,59
2022-08-25T02:53:43.246Z,59
2022-08-25T03:13:47.728Z,60
2022-08-25T03:23:49.913Z,60
2022-08-25T03:33:51.774Z,59
2022-08-25T03:43:53.748Z,60
2022-08-25T03:53:56.282Z,60
2022-08-25T04:03:58.200Z,61
2022-08-25T04:14:00.431Z,61
2022-08-25T04:24:02.983Z,62
2022-08-25T04:34:04.721Z,62
2022-08-25T04:44:06.600Z,63
2022-08-25T04:54:08.982Z,64
2022-08-25T05:04:14.516Z,64
2022-08-25T05:14:12.858Z,65
2022-08-25T05:24:15.451Z,64
2022-08-25T05:34:17.393Z,66
2022-08-25T05:44:21.250Z,66
2022-08-25T05:54:22.100Z,62
2022-08-25T06:04:24.486Z,62
2022-08-25T06:14:26.919Z,62
2022-08-25T06:24:28.982Z,62
2022-08-25T06:34:30.760Z,62
2022-08-25T06:44:32.803Z,62
2022-08-25T06:54:35.140Z,62
2022-08-25T07:04:37.259Z,62
2022-08-25T07:14:39.912Z,61
2022-08-25T07:24:42.189Z,60
2022-08-25T07:34:44.318Z,59
2022-08-25T07:54:48.384Z,58
2022-08-25T08:04:50.428Z,58
2022-08-25T08:14:52.203Z,58
2022-08-25T08:24:56.107Z,59
2022-08-25T08:34:56.806Z,57
2022-08-25T08:45:00.517Z,57
2022-08-25T08:55:00.927Z,56
2022-08-25T09:05:03.257Z,56
2022-08-25T09:15:12.137Z,56
2022-08-25T09:25:08.733Z,56
2022-08-25T09:35:09.300Z,56
2022-08-25T09:45:11.231Z,55
2022-08-25T09:55:13.344Z,54
2022-08-25T10:05:15.544Z,53
2022-08-25T10:15:22.160Z,53
2022-08-25T10:25:19.938Z,52
2022-08-25T10:35:21.713Z,52
2022-08-25T10:45:23.856Z,52
2022-08-25T10:55:25.755Z,52
2022-08-25T11:05:27.685Z,52
2022-08-25T11:25:31.768Z,51
2022-08-25T11:35:33.798Z,51
2022-08-25T11:45:35.666Z,51
2022-08-25T11:55:37.835Z,51
2022-08-25T12:05:40.352Z,50
2022-08-25T12:15:42.861Z,50
2022-08-25T12:25:45.454Z,50
2022-08-25T12:35:47.403Z,50
2022-08-25T12:45:50.096Z,50
2022-08-25T12:55:52.579Z,50
2022-08-25T13:05:54.253Z,50
2022-08-25T13:15:56.392Z,49
2022-08-25T13:25:58.216Z,49
2022-08-25T13:36:00.506Z,49
2022-08-25T13:46:02.390Z,49
2022-08-25T13:46:26.243Z,49
2022-08-25T13:56:11.486Z,49
2022-08-25T14:16:15.182Z,49
2022-08-25T14:26:17.717Z,49
2022-08-25T14:46:21.545Z,49
2022-08-25T14:56:23.252Z,49
2022-08-25T15:06:25.878Z,49
2022-08-25T15:16:32.257Z,49
2022-08-25T15:26:30.610Z,49
2022-08-25T15:36:32.927Z,49
2022-08-25T15:46:34.842Z,49
2022-08-25T15:56:36.765Z,49
2022-08-25T16:06:39.273Z,49
2022-08-25T16:16:41.905Z,49
2022-08-25T16:26:45.212Z,49
2022-08-25T16:36:46.429Z,49
2022-08-25T16:46:48.350Z,49
2022-08-25T16:56:54.727Z,49
2022-08-25T17:06:52.752Z,49
2022-08-25T17:16:54.884Z,49
2022-08-25T17:26:57.141Z,49
2022-08-25T17:36:59.681Z,49
2022-08-25T17:47:01.433Z,49
2022-08-25T17:57:03.615Z,49
2022-08-25T18:07:05.906Z,49
2022-08-25T18:17:08.297Z,49
2022-08-25T18:27:10.000Z,49
2022-08-25T18:37:12.294Z,50
2022-08-25T18:47:14.283Z,50
2022-08-25T19:17:20.526Z,50
2022-08-25T19:37:24.385Z,51
2022-08-25T19:57:42.590Z,51
2022-08-25T20:07:30.680Z,52
2022-08-25T20:17:32.637Z,52
2022-08-25T20:37:37.569Z,53
2022-08-25T20:47:39.380Z,54
2022-08-25T20:57:41.906Z,54
2022-08-25T21:07:43.737Z,54
2022-08-25T21:17:45.639Z,55
2022-08-25T21:27:49.223Z,55
2022-08-25T21:37:53.199Z,56
2022-08-25T21:47:52.743Z,56
2022-08-25T21:57:55.188Z,57
2022-08-25T22:18:00.244Z,57
2022-08-25T22:28:02.291Z,57
2022-08-25T22:48:06.341Z,58
2022-08-25T22:58:08.744Z,58
2022-08-25T23:08:11.057Z,59
2022-08-25T23:18:12.808Z,59
2022-08-25T23:28:15.325Z,60
2022-08-25T23:38:17.560Z,61
2022-08-25T23:48:19.390Z,61
2022-08-25T23:58:21.531Z,62
